X  Close Metar Aviation Weather Data     KSJC Norman Y. Mineta San Jose International Airport
Temperature
66°F Temperature
61°F Dewpoint
83% Humidity



Wind
10 MPH
16 KM/H
4 M/S
9 KTS



350°
North
Current Conditions

Overcast Overcast
Pressure 1015.92 (hPa) - 30 (inHg)
Visibility 9.9 (mile) - 16 (km)
Airport
Airport-code KSJC

Location: Norman Y. Mineta San Jose International Airport
Distance: 14 (mi)

Metar:
KSJC 180853Z AUTO 35009KT 10SM OVC013 19/16 A3000 RMK AO2 SLP157 T01890156 58000

Time: 18-09-2020 1:53 am PDT